createdAt,value
2024-04-18T00:02:15.703Z,76.86
2024-04-18T00:07:08.332Z,77.21
2024-04-18T00:12:01.220Z,77.10
2024-04-18T00:17:10.990Z,77.32
2024-04-18T00:22:04.527Z,76.87
2024-04-18T00:26:57.787Z,76.91
2024-04-18T00:31:59.056Z,77.09
2024-04-18T00:37:01.063Z,77.54
2024-04-18T00:42:13.599Z,77.42
2024-04-18T00:47:26.360Z,77.22
2024-04-18T00:52:33.994Z,76.73
2024-04-18T00:57:27.046Z,76.91
2024-04-18T01:02:26.108Z,76.94
2024-04-18T01:07:38.628Z,76.85
2024-04-18T01:12:56.288Z,76.61
2024-04-18T01:18:08.856Z,76.77
2024-04-18T01:23:01.548Z,76.66
2024-04-18T01:28:23.416Z,77.00
2024-04-18T01:33:26.566Z,76.72
2024-04-18T01:38:19.322Z,77.11
2024-04-18T01:43:11.911Z,77.13
2024-04-18T01:48:23.296Z,76.88
2024-04-18T01:53:34.805Z,76.76
2024-04-18T01:58:27.376Z,76.97
2024-04-18T02:03:20.134Z,77.23
2024-04-18T02:08:12.785Z,77.02
2024-04-18T02:13:10.610Z,77.24
2024-04-18T02:18:12.227Z,77.19
2024-04-18T02:23:07.410Z,77.37
2024-04-18T02:28:15.297Z,76.95
2024-04-18T02:33:07.923Z,77.07
2024-04-18T02:38:10.449Z,77.24
2024-04-18T02:43:03.991Z,77.42
2024-04-18T02:47:59.446Z,77.44
2024-04-18T02:53:07.455Z,77.14
2024-04-18T02:58:00.054Z,77.40
2024-04-18T03:02:52.794Z,77.45
2024-04-18T03:07:46.072Z,77.62
2024-04-18T03:12:38.740Z,77.26
2024-04-18T03:18:06.663Z,77.17
2024-04-18T03:23:00.774Z,77.27
2024-04-18T03:27:53.488Z,77.24
2024-04-18T03:32:46.164Z,77.10
2024-04-18T03:37:39.030Z,76.90
2024-04-18T03:42:50.191Z,77.03
2024-04-18T03:47:42.883Z,77.58
2024-04-18T03:52:35.541Z,77.40
2024-04-18T03:57:32.779Z,77.04
2024-04-18T04:02:25.417Z,77.19
2024-04-18T04:07:19.183Z,77.18
2024-04-18T04:12:11.738Z,77.30
2024-04-18T04:17:24.016Z,76.86
2024-04-18T04:22:33.480Z,76.78
2024-04-18T04:27:45.385Z,76.61
2024-04-18T04:32:38.158Z,76.97
2024-04-18T04:37:50.750Z,77.30
2024-04-18T04:42:43.340Z,77.47
2024-04-18T04:47:36.019Z,77.76
2024-04-18T04:52:48.609Z,77.89
2024-04-18T04:57:44.242Z,78.16
2024-04-18T05:02:48.748Z,78.67
2024-04-18T05:07:44.653Z,78.76
2024-04-18T05:13:17.423Z,79.24
2024-04-18T05:18:10.796Z,79.36
2024-04-18T05:23:04.497Z,79.40
2024-04-18T05:28:05.504Z,79.64
2024-04-18T05:33:00.806Z,79.68
2024-04-18T05:37:53.554Z,80.00
2024-04-18T05:42:46.070Z,79.79
2024-04-18T05:47:38.526Z,79.71
2024-04-18T05:52:30.970Z,80.30
2024-04-18T05:57:43.581Z,79.70
2024-04-18T06:02:56.000Z,79.55
2024-04-18T06:07:48.435Z,79.67
2024-04-18T06:12:40.900Z,79.31
2024-04-18T06:17:33.299Z,79.12
2024-04-18T06:22:28.411Z,77.67
2024-04-18T06:27:40.843Z,77.21
2024-04-18T06:32:33.422Z,76.56
2024-04-18T06:37:27.027Z,75.91
2024-04-18T06:42:19.570Z,75.51
2024-04-18T06:47:12.045Z,74.07
2024-04-18T06:52:04.685Z,72.77
2024-04-18T06:56:57.108Z,71.98
2024-04-18T07:01:50.025Z,71.06
2024-04-18T07:06:42.598Z,70.77
2024-04-18T07:11:35.179Z,70.76
2024-04-18T07:16:27.641Z,70.26
2024-04-18T07:21:20.109Z,69.28
2024-04-18T07:26:12.647Z,68.97
2024-04-18T07:31:05.170Z,68.92
2024-04-18T07:35:59.815Z,69.09
2024-04-18T07:40:52.314Z,69.34
2024-04-18T07:45:44.878Z,69.50
2024-04-18T07:50:37.352Z,66.99
2024-04-18T07:55:31.336Z,65.39
2024-04-18T08:00:24.769Z,63.37
2024-04-18T08:05:20.558Z,63.81
2024-04-18T08:10:18.144Z,63.36
2024-04-18T08:15:17.328Z,64.34
2024-04-18T08:20:12.726Z,64.12
2024-04-18T08:25:07.551Z,64.83
2024-04-18T08:30:00.028Z,64.43
2024-04-18T08:34:52.554Z,64.29
2024-04-18T08:39:45.112Z,65.09
2024-04-18T08:44:40.320Z,65.54
2024-04-18T08:49:35.162Z,65.50
2024-04-18T08:54:28.711Z,66.18
2024-04-18T08:59:23.173Z,66.42
2024-04-18T09:04:15.644Z,66.49
2024-04-18T09:09:15.503Z,66.35
2024-04-18T09:14:08.126Z,65.79
2024-04-18T09:19:00.939Z,65.76
2024-04-18T09:23:53.415Z,65.08
2024-04-18T09:28:46.474Z,65.31
2024-04-18T09:33:39.092Z,65.61
2024-04-18T09:38:33.394Z,65.46
2024-04-18T09:43:43.341Z,65.32
2024-04-18T09:48:36.706Z,64.75
2024-04-18T09:53:33.115Z,64.84
2024-04-18T09:58:28.429Z,64.81
2024-04-18T10:03:21.807Z,64.23
2024-04-18T10:08:14.693Z,63.18
2024-04-18T10:13:07.693Z,62.69
2024-04-18T10:18:00.428Z,61.83
2024-04-18T10:23:02.793Z,58.31
2024-04-18T10:27:55.276Z,57.77
2024-04-18T10:32:49.447Z,57.69
2024-04-18T10:37:51.017Z,56.42
2024-04-18T10:42:43.601Z,57.11
2024-04-18T10:47:36.822Z,58.28
2024-04-18T10:52:29.623Z,59.42
2024-04-18T10:57:22.722Z,59.95
2024-04-18T11:02:17.393Z,60.11
2024-04-18T11:07:10.040Z,60.43
2024-04-18T11:12:04.139Z,59.02
2024-04-18T11:17:02.346Z,57.92
2024-04-18T11:21:55.110Z,56.92
2024-04-18T11:26:51.172Z,55.89
2024-04-18T11:31:44.022Z,54.80
2024-04-18T11:36:39.922Z,53.21
2024-04-18T11:41:33.140Z,53.19
2024-04-18T11:46:26.061Z,52.19
2024-04-18T11:51:18.773Z,53.13
2024-04-18T11:56:11.838Z,53.75
2024-04-18T12:01:04.967Z,55.63
2024-04-18T12:06:06.698Z,57.02
2024-04-18T12:11:15.796Z,58.70
2024-04-18T12:16:08.439Z,60.37
2024-04-18T12:21:01.112Z,62.03
2024-04-18T12:26:03.021Z,63.45
2024-04-18T12:31:12.464Z,64.23
2024-04-18T12:36:18.362Z,65.06
2024-04-18T12:41:10.975Z,65.58
2024-04-18T12:46:11.458Z,65.39
2024-04-18T12:51:16.684Z,65.52
2024-04-18T12:56:09.535Z,65.55
2024-04-18T13:01:02.236Z,65.09
2024-04-18T13:06:03.657Z,64.87
2024-04-18T13:11:14.508Z,64.12
2024-04-18T13:16:07.338Z,64.57
2024-04-18T13:20:59.948Z,65.10
2024-04-18T13:25:53.903Z,64.74
2024-04-18T13:30:46.978Z,64.34
2024-04-18T13:35:59.677Z,64.57
2024-04-18T13:40:52.209Z,64.27
2024-04-18T13:45:44.845Z,63.91
2024-04-18T13:50:37.462Z,64.04
2024-04-18T13:55:30.096Z,63.36
2024-04-18T14:00:22.860Z,62.78
2024-04-18T14:05:34.372Z,62.46
2024-04-18T14:10:26.916Z,62.46
2024-04-18T14:16:11.889Z,61.34
2024-04-18T14:21:18.002Z,60.13
2024-04-18T14:26:11.039Z,59.63
2024-04-18T14:31:12.576Z,59.47
2024-04-18T14:36:14.301Z,59.43
2024-04-18T14:41:11.828Z,59.97
2024-04-18T14:46:05.546Z,59.94
2024-04-18T14:51:10.906Z,60.10
2024-04-18T14:56:12.764Z,59.93
2024-04-18T15:01:24.667Z,60.07
2024-04-18T15:06:17.770Z,60.22
2024-04-18T15:11:31.799Z,59.91
2024-04-18T15:16:27.376Z,59.63
2024-04-18T15:21:22.020Z,59.89
2024-04-18T15:26:33.291Z,59.87
2024-04-18T15:31:25.895Z,60.56
2024-04-18T15:36:24.373Z,60.84
2024-04-18T15:41:17.070Z,60.72
2024-04-18T15:46:09.619Z,61.38
2024-04-18T15:51:02.272Z,61.45
2024-04-18T15:55:54.841Z,61.65
2024-04-18T16:00:53.147Z,62.30
2024-04-18T16:05:59.532Z,62.46
2024-04-18T16:11:08.528Z,62.77
2024-04-18T16:16:19.851Z,62.88
2024-04-18T16:21:13.154Z,63.36
2024-04-18T16:26:06.369Z,63.47
2024-04-18T16:30:59.679Z,63.47
2024-04-18T16:35:52.275Z,63.56
2024-04-18T16:40:44.938Z,63.59
2024-04-18T16:45:54.888Z,64.07
2024-04-18T16:50:47.573Z,64.12
2024-04-18T16:55:40.191Z,64.38
2024-04-18T17:00:41.867Z,64.38
2024-04-18T17:05:37.477Z,64.60
2024-04-18T17:10:30.152Z,64.41
2024-04-18T17:15:49.199Z,64.54
2024-04-18T17:20:43.496Z,64.73
2024-04-18T17:25:40.620Z,65.11
2024-04-18T17:30:33.370Z,65.18
2024-04-18T17:35:25.981Z,65.55
2024-04-18T17:40:36.494Z,65.68
2024-04-18T17:45:29.099Z,65.69
2024-04-18T17:50:47.939Z,65.98
2024-04-18T17:55:40.505Z,66.05
2024-04-18T18:00:33.127Z,66.10
2024-04-18T18:05:25.898Z,66.36
2024-04-18T18:10:38.452Z,66.36
2024-04-18T18:15:37.073Z,66.63
2024-04-18T18:20:29.736Z,66.89
2024-04-18T18:25:22.421Z,67.13
2024-04-18T18:30:15.868Z,67.33
2024-04-18T18:35:09.442Z,67.59
2024-04-18T18:40:02.133Z,67.89
2024-04-18T18:44:54.719Z,67.99
2024-04-18T18:49:47.422Z,68.14
2024-04-18T18:54:40.312Z,68.47
2024-04-18T18:59:34.104Z,68.56
2024-04-18T19:04:29.624Z,68.66
2024-04-18T19:09:23.654Z,68.58
2024-04-18T19:14:16.536Z,68.79
2024-04-18T19:19:28.303Z,68.85
2024-04-18T19:24:21.132Z,68.79
2024-04-18T19:29:31.379Z,68.78
2024-04-18T19:34:33.508Z,68.71
2024-04-18T19:39:26.500Z,68.70
2024-04-18T19:44:25.434Z,68.64
2024-04-18T19:49:18.468Z,68.62
2024-04-18T19:54:20.914Z,68.68
2024-04-18T19:59:13.730Z,68.48
2024-04-18T20:04:06.426Z,68.55
2024-04-18T20:09:01.120Z,68.36
2024-04-18T20:13:53.870Z,68.30
2024-04-18T20:18:47.764Z,68.46
2024-04-18T20:23:40.592Z,68.58
2024-04-18T20:28:34.288Z,68.73
2024-04-18T20:33:26.964Z,68.59
2024-04-18T20:38:19.593Z,68.42
2024-04-18T20:43:12.386Z,68.16
2024-04-18T20:48:05.862Z,67.89
2024-04-18T20:52:58.532Z,67.65
2024-04-18T20:57:51.406Z,67.48
2024-04-18T21:02:44.574Z,67.65
2024-04-18T21:07:37.205Z,67.63
2024-04-18T21:12:29.764Z,67.71
2024-04-18T21:17:22.251Z,67.83
2024-04-18T21:22:14.922Z,67.84
2024-04-18T21:27:07.597Z,67.82
2024-04-18T21:32:00.133Z,67.89
2024-04-18T21:36:52.633Z,68.05
2024-04-18T21:41:46.607Z,68.34
2024-04-18T21:46:39.338Z,68.78
2024-04-18T21:51:31.892Z,68.53
2024-04-18T21:56:24.425Z,68.62
2024-04-18T22:01:17.107Z,69.19
2024-04-18T22:06:09.670Z,69.20
2024-04-18T22:11:02.269Z,69.34
2024-04-18T22:16:06.160Z,69.44
2024-04-18T22:20:58.652Z,69.43
2024-04-18T22:25:51.269Z,69.83
2024-04-18T22:30:43.829Z,70.14
2024-04-18T22:35:36.406Z,69.91
2024-04-18T22:40:28.930Z,70.07
2024-04-18T22:45:21.561Z,70.32
2024-04-18T22:50:14.054Z,70.24
2024-04-18T22:55:06.625Z,70.56
2024-04-18T22:59:59.077Z,70.72
2024-04-18T23:04:51.560Z,70.86
2024-04-18T23:09:44.049Z,71.03
2024-04-18T23:14:36.555Z,71.08
2024-04-18T23:19:29.078Z,71.36
2024-04-18T23:24:21.599Z,71.51
2024-04-18T23:29:15.029Z,71.58
2024-04-18T23:34:07.606Z,71.94
2024-04-18T23:39:00.127Z,71.98
2024-04-18T23:43:52.647Z,71.72
2024-04-18T23:48:45.307Z,72.23
2024-04-18T23:53:38.049Z,72.25
2024-04-18T23:58:31.628Z,72.36
